sensor_id;sensor_type;location;lat;lon;timestamp;pressure;altitude;pressure_sealevel;temperature;humidity
5996;BME280;3026;53.612;7.278;2023-02-13T00:00:07;103763.09;;;7.07;100.00
5996;BME280;3026;53.612;7.278;2023-02-13T00:02:37;103770.19;;;7.10;100.00
5996;BME280;3026;53.612;7.278;2023-02-13T00:05:05;103770.34;;;7.07;100.00
5996;BME280;3026;53.612;7.278;2023-02-13T00:07:40;103774.81;;;7.08;100.00
5996;BME280;3026;53.612;7.278;2023-02-13T00:10:10;103769.41;;;7.08;100.00
5996;BME280;3026;53.612;7.278;2023-02-13T00:12:37;103771.06;;;7.10;100.00
5996;BME280;3026;53.612;7.278;2023-02-13T00:15:06;103770.03;;;7.13;100.00
5996;BME280;3026;53.612;7.278;2023-02-13T00:17:34;103773.84;;;7.09;100.00
5996;BME280;3026;53.612;7.278;2023-02-13T00:20:03;103769.41;;;7.08;100.00
5996;BME280;3026;53.612;7.278;2023-02-13T00:22:35;103771.28;;;7.06;100.00
5996;BME280;3026;53.612;7.278;2023-02-13T00:25:05;103783.75;;;7.10;100.00
5996;BME280;3026;53.612;7.278;2023-02-13T00:27:34;103777.66;;;7.05;100.00
5996;BME280;3026;53.612;7.278;2023-02-13T00:30:08;103769.44;;;7.06;100.00
5996;BME280;3026;53.612;7.278;2023-02-13T00:32:35;103766.81;;;7.05;100.00
5996;BME280;3026;53.612;7.278;2023-02-13T00:35:04;103766.81;;;7.05;100.00
5996;BME280;3026;53.612;7.278;2023-02-13T00:37:32;103768.72;;;7.02;100.00
5996;BME280;3026;53.612;7.278;2023-02-13T00:40:00;103765.13;;;7.02;100.00
5996;BME280;3026;53.612;7.278;2023-02-13T00:42:32;103775.91;;;7.03;100.00
5996;BME280;3026;53.612;7.278;2023-02-13T00:45:06;103763.31;;;7.02;100.00
5996;BME280;3026;53.612;7.278;2023-02-13T00:47:47;103760.84;;;6.98;100.00
5996;BME280;3026;53.612;7.278;2023-02-13T00:50:46;103766.97;;;7.01;100.00
5996;BME280;3026;53.612;7.278;2023-02-13T00:53:32;103759.88;;;6.99;100.00
5996;BME280;3026;53.612;7.278;2023-02-13T00:56:33;103759.16;;;6.95;100.00
5996;BME280;3026;53.612;7.278;2023-02-13T00:59:10;103748.69;;;6.88;100.00
5996;BME280;3026;53.612;7.278;2023-02-13T01:01:47;103751.31;;;6.89;100.00
5996;BME280;3026;53.612;7.278;2023-02-13T01:04:17;103741.72;;;6.82;100.00
5996;BME280;3026;53.612;7.278;2023-02-13T01:06:47;103753.31;;;6.86;100.00
5996;BME280;3026;53.612;7.278;2023-02-13T01:09:19;103739.97;;;6.81;100.00
5996;BME280;3026;53.612;7.278;2023-02-13T01:12:00;103751.66;;;6.83;100.00
5996;BME280;3026;53.612;7.278;2023-02-13T01:14:30;103746.34;;;6.80;100.00
5996;BME280;3026;53.612;7.278;2023-02-13T01:16:58;103752.75;;;6.79;100.00
5996;BME280;3026;53.612;7.278;2023-02-13T01:19:28;103751.66;;;6.83;100.00
5996;BME280;3026;53.612;7.278;2023-02-13T01:22:06;103744.59;;;6.79;100.00
5996;BME280;3026;53.612;7.278;2023-02-13T01:24:35;103749.94;;;6.81;100.00
5996;BME280;3026;53.612;7.278;2023-02-13T01:27:05;103749.88;;;6.82;100.00
5996;BME280;3026;53.612;7.278;2023-02-13T01:29:35;103735.66;;;6.77;100.00
5996;BME280;3026;53.612;7.278;2023-02-13T01:32:08;103741.09;;;6.77;100.00
5996;BME280;3026;53.612;7.278;2023-02-13T01:34:37;103751.78;;;6.80;100.00
5996;BME280;3026;53.612;7.278;2023-02-13T01:37:04;103735.84;;;6.74;100.00
5996;BME280;3026;53.612;7.278;2023-02-13T01:39:32;103738.63;;;6.72;100.00
5996;BME280;3026;53.612;7.278;2023-02-13T01:42:00;103737.75;;;6.72;100.00
5996;BME280;3026;53.612;7.278;2023-02-13T01:44:49;103739.63;;;6.70;100.00
5996;BME280;3026;53.612;7.278;2023-02-13T01:47:23;103735.97;;;6.71;100.00
5996;BME280;3026;53.612;7.278;2023-02-13T01:50:03;103727.19;;;6.66;100.00
5996;BME280;3026;53.612;7.278;2023-02-13T01:52:35;103736.28;;;6.65;100.00
5996;BME280;3026;53.612;7.278;2023-02-13T01:55:18;103739.16;;;6.62;100.00
5996;BME280;3026;53.612;7.278;2023-02-13T01:57:55;103738.34;;;6.60;100.00
5996;BME280;3026;53.612;7.278;2023-02-13T02:00:33;103735.88;;;6.55;100.00
5996;BME280;3026;53.612;7.278;2023-02-13T02:03:06;103730.53;;;6.54;100.00
5996;BME280;3026;53.612;7.278;2023-02-13T02:05:36;103731.31;;;6.56;100.00
5996;BME280;3026;53.612;7.278;2023-02-13T02:08:07;103733.22;;;6.54;100.00
5996;BME280;3026;53.612;7.278;2023-02-13T02:10:37;103725.97;;;6.54;100.00
5996;BME280;3026;53.612;7.278;2023-02-13T02:13:07;103731.31;;;6.56;100.00
5996;BME280;3026;53.612;7.278;2023-02-13T02:15:38;103716.97;;;6.54;100.00
5996;BME280;3026;53.612;7.278;2023-02-13T02:18:12;103726.06;;;6.53;100.00
5996;BME280;3026;53.612;7.278;2023-02-13T02:24:20;103725.19;;;6.52;100.00
5996;BME280;3026;53.612;7.278;2023-02-13T02:27:04;103733.06;;;6.57;100.00
5996;BME280;3026;53.612;7.278;2023-02-13T02:30:00;103729.72;;;6.52;100.00
5996;BME280;3026;53.612;7.278;2023-02-13T02:33:02;103725.38;;;6.48;100.00
5996;BME280;3026;53.612;7.278;2023-02-13T02:35:42;103724.75;;;6.42;100.00
5996;BME280;3026;53.612;7.278;2023-02-13T02:38:20;103728.09;;;6.48;100.00
5996;BME280;3026;53.612;7.278;2023-02-13T02:40:58;103715.66;;;6.43;100.00
5996;BME280;3026;53.612;7.278;2023-02-13T02:43:45;103713.03;;;6.42;100.00
5996;BME280;3026;53.612;7.278;2023-02-13T02:46:21;103704.97;;;6.40;100.00
5996;BME280;3026;53.612;7.278;2023-02-13T02:48:57;103706.72;;;6.41;100.00
5996;BME280;3026;53.612;7.278;2023-02-13T02:51:52;103703.94;;;6.43;100.00
5996;BME280;3026;53.612;7.278;2023-02-13T02:54:26;103710.25;;;6.43;100.00
5996;BME280;3026;53.612;7.278;2023-02-13T02:57:16;103713.63;;;6.49;100.00
5996;BME280;3026;53.612;7.278;2023-02-13T02:59:47;103713.63;;;6.49;100.00
5996;BME280;3026;53.612;7.278;2023-02-13T03:02:33;103699.22;;;6.47;100.00
5996;BME280;3026;53.612;7.278;2023-02-13T03:05:21;103695.56;;;6.48;100.00
5996;BME280;3026;53.612;7.278;2023-02-13T03:08:08;103702.78;;;6.49;100.00
5996;BME280;3026;53.612;7.278;2023-02-13T03:10:37;103698.34;;;6.46;100.00
5996;BME280;3026;53.612;7.278;2023-02-13T03:13:34;103708.19;;;6.49;100.00
5996;BME280;3026;53.612;7.278;2023-02-13T03:16:04;103696.59;;;6.45;100.00
5996;BME280;3026;53.612;7.278;2023-02-13T03:18:52;103693.81;;;6.47;100.00
5996;BME280;3026;53.612;7.278;2023-02-13T03:21:47;103695.44;;;6.51;100.00
5996;BME280;3026;53.612;7.278;2023-02-13T03:24:41;103694.47;;;6.52;100.00
5996;BME280;3026;53.612;7.278;2023-02-13T03:27:17;103688.56;;;6.43;100.00
5996;BME280;3026;53.612;7.278;2023-02-13T03:30:15;103704.66;;;6.47;100.00
5996;BME280;3026;53.612;7.278;2023-02-13T03:32:58;103692.22;;;6.42;100.00
5996;BME280;3026;53.612;7.278;2023-02-13T03:35:34;103686.00;;;6.40;100.00
5996;BME280;3026;53.612;7.278;2023-02-13T03:38:26;103696.59;;;6.45;100.00
5996;BME280;3026;53.612;7.278;2023-02-13T03:40:59;103711.84;;;6.48;100.00
5996;BME280;3026;53.612;7.278;2023-02-13T03:43:52;103706.56;;;6.44;100.00
5996;BME280;3026;53.612;7.278;2023-02-13T03:46:23;103708.31;;;6.46;100.00
5996;BME280;3026;53.612;7.278;2023-02-13T03:48:56;103709.19;;;6.46;100.00
5996;BME280;3026;53.612;7.278;2023-02-13T03:51:45;103704.03;;;6.41;100.00
5996;BME280;3026;53.612;7.278;2023-02-13T03:54:21;103704.81;;;6.43;100.00
5996;BME280;3026;53.612;7.278;2023-02-13T03:57:09;103707.28;;;6.48;100.00
5996;BME280;3026;53.612;7.278;2023-02-13T03:59:57;103703.16;;;6.41;100.00
5996;BME280;3026;53.612;7.278;2023-02-13T04:02:35;103707.59;;;6.42;100.00
5996;BME280;3026;53.612;7.278;2023-02-13T04:05:08;103698.75;;;6.38;100.00
5996;BME280;3026;53.612;7.278;2023-02-13T04:07:44;103690.75;;;6.35;100.00
5996;BME280;3026;53.612;7.278;2023-02-13T04:10:16;103689.97;;;6.33;100.00
5996;BME280;3026;53.612;7.278;2023-02-13T04:12:59;103695.53;;;6.30;100.00
5996;BME280;3026;53.612;7.278;2023-02-13T04:15:33;103701.75;;;6.32;100.00
5996;BME280;3026;53.612;7.278;2023-02-13T04:18:08;103692.19;;;6.25;100.00
5996;BME280;3026;53.612;7.278;2023-02-13T04:20:43;103697.59;;;6.25;100.00
5996;BME280;3026;53.612;7.278;2023-02-13T04:23:15;103703.66;;;6.30;100.00
5996;BME280;3026;53.612;7.278;2023-02-13T04:26:04;103696.50;;;6.29;100.00
5996;BME280;3026;53.612;7.278;2023-02-13T04:28:34;103703.94;;;6.24;100.00
5996;BME280;3026;53.612;7.278;2023-02-13T04:31:03;103695.81;;;6.24;100.00
5996;BME280;3026;53.612;7.278;2023-02-13T04:33:31;103701.91;;;6.29;100.00
5996;BME280;3026;53.612;7.278;2023-02-13T04:36:04;103708.22;;;6.30;100.00
5996;BME280;3026;53.612;7.278;2023-02-13T04:38:57;103698.53;;;6.24;100.00
5996;BME280;3026;53.612;7.278;2023-02-13T04:41:29;103698.41;;;6.27;100.00
5996;BME280;3026;53.612;7.278;2023-02-13T04:44:00;103694.66;;;6.30;100.00
5996;BME280;3026;53.612;7.278;2023-02-13T04:46:27;103691.22;;;6.26;100.00
5996;BME280;3026;53.612;7.278;2023-02-13T04:48:55;103695.69;;;6.27;100.00
5996;BME280;3026;53.612;7.278;2023-02-13T04:51:24;103693.13;;;6.24;100.00
5996;BME280;3026;53.612;7.278;2023-02-13T04:54:05;103697.44;;;6.28;100.00
5996;BME280;3026;53.612;7.278;2023-02-13T04:57:01;103699.22;;;6.29;100.00
5996;BME280;3026;53.612;7.278;2023-02-13T04:59:53;103694.06;;;6.23;100.00
5996;BME280;3026;53.612;7.278;2023-02-13T05:02:30;103702.78;;;6.30;100.00
5996;BME280;3026;53.612;7.278;2023-02-13T05:04:57;103692.81;;;6.30;100.00
5996;BME280;3026;53.612;7.278;2023-02-13T05:07:24;103692.81;;;6.30;100.00
5996;BME280;3026;53.612;7.278;2023-02-13T05:09:51;103688.28;;;6.31;100.00
5996;BME280;3026;53.612;7.278;2023-02-13T05:12:20;103693.41;;;6.37;100.00
5996;BME280;3026;53.612;7.278;2023-02-13T05:14:48;103687.25;;;6.33;100.00
5996;BME280;3026;53.612;7.278;2023-02-13T05:17:21;103687.09;;;6.36;100.00
5996;BME280;3026;53.612;7.278;2023-02-13T05:19:52;103693.34;;;6.38;100.00
5996;BME280;3026;53.612;7.278;2023-02-13T05:22:19;103690.63;;;6.38;100.00
5996;BME280;3026;53.612;7.278;2023-02-13T05:25:05;103688.88;;;6.37;100.00
5996;BME280;3026;53.612;7.278;2023-02-13T05:27:36;103694.06;;;6.42;100.00
5996;BME280;3026;53.612;7.278;2023-02-13T05:30:04;103689.66;;;6.39;100.00
5996;BME280;3026;53.612;7.278;2023-02-13T05:32:33;103703.06;;;6.42;100.00
5996;BME280;3026;53.612;7.278;2023-02-13T05:35:02;103697.81;;;6.39;100.00
5996;BME280;3026;53.612;7.278;2023-02-13T05:37:32;103695.09;;;6.39;100.00
5996;BME280;3026;53.612;7.278;2023-02-13T05:40:01;103697.81;;;6.39;100.00
5996;BME280;3026;53.612;7.278;2023-02-13T05:42:39;103695.09;;;6.39;100.00
5996;BME280;3026;53.612;7.278;2023-02-13T05:45:07;103709.44;;;6.41;100.00
5996;BME280;3026;53.612;7.278;2023-02-13T05:47:35;103703.94;;;6.43;100.00
5996;BME280;3026;53.612;7.278;2023-02-13T05:50:05;103703.22;;;6.39;100.00
5996;BME280;3026;53.612;7.278;2023-02-13T05:52:34;103701.47;;;6.38;100.00
5996;BME280;3026;53.612;7.278;2023-02-13T05:55:03;103711.13;;;6.44;100.00
5996;BME280;3026;53.612;7.278;2023-02-13T05:57:30;103704.97;;;6.40;100.00
5996;BME280;3026;53.612;7.278;2023-02-13T06:00:01;103724.59;;;6.46;100.00
5996;BME280;3026;53.612;7.278;2023-02-13T06:02:28;103713.91;;;6.42;100.00
5996;BME280;3026;53.612;7.278;2023-02-13T06:04:55;103728.56;;;6.38;100.00
5996;BME280;3026;53.612;7.278;2023-02-13T06:07:23;103730.97;;;6.44;100.00
5996;BME280;3026;53.612;7.278;2023-02-13T06:09:50;103725.72;;;6.41;100.00
5996;BME280;3026;53.612;7.278;2023-02-13T06:12:17;103728.41;;;6.41;100.00
5996;BME280;3026;53.612;7.278;2023-02-13T06:14:44;103737.50;;;6.40;100.00
5996;BME280;3026;53.612;7.278;2023-02-13T06:17:14;103732.97;;;6.41;100.00
5996;BME280;3026;53.612;7.278;2023-02-13T06:19:45;103749.88;;;6.46;100.00
5996;BME280;3026;53.612;7.278;2023-02-13T06:22:14;103747.22;;;6.44;100.00
5996;BME280;3026;53.612;7.278;2023-02-13T06:24:42;103741.28;;;6.36;100.00
5996;BME280;3026;53.612;7.278;2023-02-13T06:27:11;103741.16;;;6.39;100.00
5996;BME280;3026;53.612;7.278;2023-02-13T06:29:39;103744.84;;;6.38;100.00
5996;BME280;3026;53.612;7.278;2023-02-13T06:32:06;103752.00;;;6.39;100.00
5996;BME280;3026;53.612;7.278;2023-02-13T06:34:35;103741.16;;;6.39;100.00
5996;BME280;3026;53.612;7.278;2023-02-13T06:37:03;103757.28;;;6.42;100.00
5996;BME280;3026;53.612;7.278;2023-02-13T06:39:30;103748.50;;;6.37;100.00
5996;BME280;3026;53.612;7.278;2023-02-13T06:41:58;103750.25;;;6.38;100.00
5996;BME280;3026;53.612;7.278;2023-02-13T06:44:25;103755.53;;;6.41;100.00
5996;BME280;3026;53.612;7.278;2023-02-13T06:46:53;103747.69;;;6.35;100.00
5996;BME280;3026;53.612;7.278;2023-02-13T06:49:20;103748.50;;;6.37;100.00
5996;BME280;3026;53.612;7.278;2023-02-13T06:51:49;103755.53;;;6.41;100.00
5996;BME280;3026;53.612;7.278;2023-02-13T06:54:16;103754.06;;;6.34;100.00
5996;BME280;3026;53.612;7.278;2023-02-13T06:56:46;103754.13;;;6.33;100.00
5996;BME280;3026;53.612;7.278;2023-02-13T06:59:13;103768.28;;;6.39;100.00
5996;BME280;3026;53.612;7.278;2023-02-13T07:01:40;103755.97;;;6.32;100.00
5996;BME280;3026;53.612;7.278;2023-02-13T07:04:07;103762.09;;;6.36;100.00
5996;BME280;3026;53.612;7.278;2023-02-13T07:06:35;103755.97;;;6.32;100.00
5996;BME280;3026;53.612;7.278;2023-02-13T07:09:04;103752.44;;;6.30;100.00
5996;BME280;3026;53.612;7.278;2023-02-13T07:11:31;103760.44;;;6.33;100.00
5996;BME280;3026;53.612;7.278;2023-02-13T07:13:59;103761.47;;;6.31;100.00
5996;BME280;3026;53.612;7.278;2023-02-13T07:16:26;103756.13;;;6.29;100.00
5996;BME280;3026;53.612;7.278;2023-02-13T07:18:53;103760.59;;;6.30;100.00
5996;BME280;3026;53.612;7.278;2023-02-13T07:21:20;103764.25;;;6.29;100.00
5996;BME280;3026;53.612;7.278;2023-02-13T07:23:47;103770.31;;;6.34;100.00
5996;BME280;3026;53.612;7.278;2023-02-13T07:26:18;103775.72;;;6.34;100.00
5996;BME280;3026;53.612;7.278;2023-02-13T07:28:56;103770.47;;;6.31;100.00
5996;BME280;3026;53.612;7.278;2023-02-13T07:31:39;103756.13;;;6.29;100.00
5996;BME280;3026;53.612;7.278;2023-02-13T07:34:09;103763.06;;;6.35;100.00
5996;BME280;3026;53.612;7.278;2023-02-13T07:36:37;103775.63;;;6.37;100.00
5996;BME280;3026;53.612;7.278;2023-02-13T07:39:03;103773.81;;;6.36;100.00
5996;BME280;3026;53.612;7.278;2023-02-13T07:41:32;103759.47;;;6.34;100.00
5996;BME280;3026;53.612;7.278;2023-02-13T07:43:59;103757.63;;;6.35;100.00
5996;BME280;3026;53.612;7.278;2023-02-13T07:46:26;103758.47;;;6.37;100.00
5996;BME280;3026;53.612;7.278;2023-02-13T07:48:53;103756.63;;;6.37;100.00
5996;BME280;3026;53.612;7.278;2023-02-13T07:51:21;103752.13;;;6.36;100.00
5996;BME280;3026;53.612;7.278;2023-02-13T07:53:51;103771.78;;;6.41;100.00
5996;BME280;3026;53.612;7.278;2023-02-13T07:56:18;103764.78;;;6.37;100.00
5996;BME280;3026;53.612;7.278;2023-02-13T07:58:47;103766.38;;;6.41;100.00
5996;BME280;3026;53.612;7.278;2023-02-13T08:01:15;103764.44;;;6.43;100.00
5996;BME280;3026;53.612;7.278;2023-02-13T08:03:47;103768.84;;;6.46;100.00
5996;BME280;3026;53.612;7.278;2023-02-13T08:06:16;103754.72;;;6.39;100.00
5996;BME280;3026;53.612;7.278;2023-02-13T08:08:43;103764.28;;;6.47;100.00
5996;BME280;3026;53.612;7.278;2023-02-13T08:11:21;103758.88;;;6.47;100.00
5996;BME280;3026;53.612;7.278;2023-02-13T08:14:08;103771.47;;;6.48;100.00
5996;BME280;3026;53.612;7.278;2023-02-13T08:16:35;103771.47;;;6.48;100.00
5996;BME280;3026;53.612;7.278;2023-02-13T08:19:03;103767.84;;;6.49;100.00
5996;BME280;3026;53.612;7.278;2023-02-13T08:21:30;103761.59;;;6.47;100.00
5996;BME280;3026;53.612;7.278;2023-02-13T08:24:00;103765.94;;;6.51;100.00
5996;BME280;3026;53.612;7.278;2023-02-13T08:26:29;103774.78;;;6.54;100.00
5996;BME280;3026;53.612;7.278;2023-02-13T08:28:56;103772.78;;;6.58;100.00
5996;BME280;3026;53.612;7.278;2023-02-13T08:31:26;103769.28;;;6.56;100.00
5996;BME280;3026;53.612;7.278;2023-02-13T08:33:55;103774.41;;;6.62;100.00
5996;BME280;3026;53.612;7.278;2023-02-13T08:36:22;103786.84;;;6.66;100.00
5996;BME280;3026;53.612;7.278;2023-02-13T08:38:49;103777.91;;;6.64;100.00
5996;BME280;3026;53.612;7.278;2023-02-13T08:41:17;103770.44;;;6.69;100.00
5996;BME280;3026;53.612;7.278;2023-02-13T08:43:46;103785.75;;;6.70;100.00
5996;BME280;3026;53.612;7.278;2023-02-13T08:46:14;103779.22;;;6.74;100.00
5996;BME280;3026;53.612;7.278;2023-02-13T08:48:42;103780.97;;;6.75;100.00
5996;BME280;3026;53.612;7.278;2023-02-13T08:51:11;103777.47;;;6.73;100.00
5996;BME280;3026;53.612;7.278;2023-02-13T08:53:38;103790.63;;;6.81;100.00
5996;BME280;3026;53.612;7.278;2023-02-13T08:56:06;103780.03;;;6.76;100.00
5996;BME280;3026;53.612;7.278;2023-02-13T08:58:33;103773.00;;;6.72;100.00
5996;BME280;3026;53.612;7.278;2023-02-13T09:01:03;103787.44;;;6.72;100.00
5996;BME280;3026;53.612;7.278;2023-02-13T09:03:31;103792.88;;;6.72;100.00
5996;BME280;3026;53.612;7.278;2023-02-13T09:06:01;103800.94;;;6.74;100.00
5996;BME280;3026;53.612;7.278;2023-02-13T09:08:28;103787.56;;;6.69;100.00
5996;BME280;3026;53.612;7.278;2023-02-13T09:10:56;103785.69;;;6.71;100.00
5996;BME280;3026;53.612;7.278;2023-02-13T09:13:23;103777.47;;;6.73;100.00
5996;BME280;3026;53.612;7.278;2023-02-13T09:15:52;103775.56;;;6.75;100.00
5996;BME280;3026;53.612;7.278;2023-02-13T09:18:19;103778.91;;;6.80;100.00
5996;BME280;3026;53.612;7.278;2023-02-13T09:20:46;103773.66;;;6.77;100.00
5996;BME280;3026;53.612;7.278;2023-02-13T09:23:15;103775.22;;;6.81;100.00
5996;BME280;3026;53.612;7.278;2023-02-13T09:25:42;103768.06;;;6.80;100.00
5996;BME280;3026;53.612;7.278;2023-02-13T09:28:08;103781.31;;;6.86;100.00
5996;BME280;3026;53.612;7.278;2023-02-13T09:30:36;103786.44;;;6.92;100.00
5996;BME280;3026;53.612;7.278;2023-02-13T09:33:03;103785.34;;;6.96;100.00
5996;BME280;3026;53.612;7.278;2023-02-13T09:35:35;103784.28;;;6.99;100.00
5996;BME280;3026;53.612;7.278;2023-02-13T09:38:02;103785.97;;;7.01;100.00
5996;BME280;3026;53.612;7.278;2023-02-13T09:40:35;103786.94;;;7.00;100.00
5996;BME280;3026;53.612;7.278;2023-02-13T09:43:06;103797.78;;;7.00;100.00
5996;BME280;3026;53.612;7.278;2023-02-13T09:45:37;103793.81;;;7.08;100.00
5996;BME280;3026;53.612;7.278;2023-02-13T09:48:05;103791.91;;;7.10;100.00
5996;BME280;3026;53.612;7.278;2023-02-13T09:50:37;103781.34;;;7.03;100.00
5996;BME280;3026;53.612;7.278;2023-02-13T09:53:04;103786.63;;;7.07;100.00
5996;BME280;3026;53.612;7.278;2023-02-13T09:55:39;103799.06;;;7.11;100.00
5996;BME280;3026;53.612;7.278;2023-02-13T09:58:18;103794.53;;;7.11;100.00
5996;BME280;3026;53.612;7.278;2023-02-13T10:00:50;103800.66;;;7.15;100.00
5996;BME280;3026;53.612;7.278;2023-02-13T10:03:28;103798.69;;;7.18;100.00
5996;BME280;3026;53.612;7.278;2023-02-13T10:06:05;103799.56;;;7.19;100.00
5996;BME280;3026;53.612;7.278;2023-02-13T10:08:46;103790.56;;;7.18;100.00
5996;BME280;3026;53.612;7.278;2023-02-13T10:14:26;103796.88;;;7.19;100.00
5996;BME280;3026;53.612;7.278;2023-02-13T10:16:59;103794.94;;;7.21;100.00
5996;BME280;3026;53.612;7.278;2023-02-13T10:19:34;103814.72;;;7.23;100.00
5996;BME280;3026;53.612;7.278;2023-02-13T10:22:06;103810.75;;;7.30;100.00
5996;BME280;3026;53.612;7.278;2023-02-13T10:24:39;103814.41;;;7.29;100.00
5996;BME280;3026;53.612;7.278;2023-02-13T10:27:18;103805.34;;;7.30;100.00
5996;BME280;3026;53.612;7.278;2023-02-13T10:29:51;103808.91;;;7.30;100.00
5996;BME280;3026;53.612;7.278;2023-02-13T10:32:53;103808.84;;;7.32;100.00
5996;BME280;3026;53.612;7.278;2023-02-13T10:35:36;103809.63;;;7.34;100.00
5996;BME280;3026;53.612;7.278;2023-02-13T10:38:13;103807.72;;;7.36;100.00
5996;BME280;3026;53.612;7.278;2023-02-13T10:40:50;103804.03;;;7.37;100.00
5996;BME280;3026;53.612;7.278;2023-02-13T10:43:23;103812.59;;;7.47;100.00
5996;BME280;3026;53.612;7.278;2023-02-13T10:46:13;103809.63;;;7.51;100.00
5996;BME280;3026;53.612;7.278;2023-02-13T10:49:04;103804.19;;;7.51;100.00
5996;BME280;3026;53.612;7.278;2023-02-13T10:51:38;103791.75;;;7.47;100.00
5996;BME280;3026;53.612;7.278;2023-02-13T10:54:21;103799.56;;;7.53;100.00
5996;BME280;3026;53.612;7.278;2023-02-13T10:56:56;103802.28;;;7.53;100.00
5996;BME280;3026;53.612;7.278;2023-02-13T10:59:41;103798.75;;;7.51;100.00
5996;BME280;3026;53.612;7.278;2023-02-13T11:02:20;103786.13;;;7.50;100.00
5996;BME280;3026;53.612;7.278;2023-02-13T11:04:51;103796.53;;;7.59;100.00
5996;BME280;3026;53.612;7.278;2023-02-13T11:07:22;103785.47;;;7.63;100.00
5996;BME280;3026;53.612;7.278;2023-02-13T11:09:54;103781.66;;;7.67;100.00
5996;BME280;3026;53.612;7.278;2023-02-13T11:12:26;103794.13;;;7.71;100.00
5996;BME280;3026;53.612;7.278;2023-02-13T11:14:55;103777.81;;;7.71;100.00
5996;BME280;3026;53.612;7.278;2023-02-13T11:17:25;103762.97;;;7.60;100.00
5996;BME280;3026;53.612;7.278;2023-02-13T11:19:56;103773.44;;;7.68;100.00
5996;BME280;3026;53.612;7.278;2023-02-13T11:22:29;103767.13;;;7.68;100.00
5996;BME280;3026;53.612;7.278;2023-02-13T11:24:59;103776.06;;;7.70;100.00
5996;BME280;3026;53.612;7.278;2023-02-13T11:27:31;103773.97;;;7.75;100.00
5996;BME280;3026;53.612;7.278;2023-02-13T11:30:00;103769.34;;;7.77;100.00
5996;BME280;3026;53.612;7.278;2023-02-13T11:32:32;103754.94;;;7.75;100.00
5996;BME280;3026;53.612;7.278;2023-02-13T11:35:24;103762.00;;;7.79;100.00
5996;BME280;3026;53.612;7.278;2023-02-13T11:38:11;103750.94;;;7.82;100.00
5996;BME280;3026;53.612;7.278;2023-02-13T11:40:40;103758.91;;;7.85;100.00
5996;BME280;3026;53.612;7.278;2023-02-13T11:43:17;103764.34;;;7.85;100.00
5996;BME280;3026;53.612;7.278;2023-02-13T11:45:45;103746.31;;;7.84;100.00
5996;BME280;3026;53.612;7.278;2023-02-13T11:48:21;103747.91;;;7.88;100.00
5996;BME280;3026;53.612;7.278;2023-02-13T11:50:52;103760.25;;;7.94;100.00
5996;BME280;3026;53.612;7.278;2023-02-13T11:53:23;103745.81;;;7.93;100.00
5996;BME280;3026;53.612;7.278;2023-02-13T11:56:08;103743.63;;;8.00;100.00
5996;BME280;3026;53.612;7.278;2023-02-13T11:58:35;103741.78;;;8.00;100.00
5996;BME280;3026;53.612;7.278;2023-02-13T12:01:25;103735.31;;;8.03;100.00
5996;BME280;3026;53.612;7.278;2023-02-13T12:04:03;103741.25;;;8.09;100.00
5996;BME280;3026;53.612;7.278;2023-02-13T12:06:32;103742.84;;;8.13;100.00
5996;BME280;3026;53.612;7.278;2023-02-13T12:09:07;103741.88;;;8.14;100.00
5996;BME280;3026;53.612;7.278;2023-02-13T12:11:41;103732.31;;;8.07;100.00
5996;BME280;3026;53.612;7.278;2023-02-13T12:14:15;103728.63;;;8.08;100.00
5996;BME280;3026;53.612;7.278;2023-02-13T12:16:47;103721.13;;;8.13;100.00
5996;BME280;3026;53.612;7.278;2023-02-13T12:19:27;103731.03;;;8.14;100.00
5996;BME280;3026;53.612;7.278;2023-02-13T12:22:12;103719.19;;;8.15;100.00
5996;BME280;3026;53.612;7.278;2023-02-13T12:25:10;103723.47;;;8.19;100.00
5996;BME280;3026;53.612;7.278;2023-02-13T12:27:45;103708.13;;;8.18;100.00
5996;BME280;3026;53.612;7.278;2023-02-13T12:30:42;103705.50;;;8.17;100.00
5996;BME280;3026;53.612;7.278;2023-02-13T12:33:25;103710.06;;;8.16;100.00
5996;BME280;3026;53.612;7.278;2023-02-13T12:36:01;103707.94;;;8.22;100.00
5996;BME280;3026;53.612;7.278;2023-02-13T12:38:58;103708.56;;;8.27;100.00
5996;BME280;3026;53.612;7.278;2023-02-13T12:41:50;103710.13;;;8.31;100.00
5996;BME280;3026;53.612;7.278;2023-02-13T12:44:35;103707.28;;;8.34;100.00
5996;BME280;3026;53.612;7.278;2023-02-13T12:47:15;103707.28;;;8.34;100.00
5996;BME280;3026;53.612;7.278;2023-02-13T12:50:05;103711.09;;;8.30;100.00
5996;BME280;3026;53.612;7.278;2023-02-13T12:52:50;103700.22;;;8.30;100.00
5996;BME280;3026;53.612;7.278;2023-02-13T12:55:45;103691.88;;;8.33;100.00
5996;BME280;3026;53.612;7.278;2023-02-13T13:01:21;103686.59;;;8.47;100.00
5996;BME280;3026;53.612;7.278;2023-02-13T13:04:04;103693.78;;;8.48;100.00
5996;BME280;3026;53.612;7.278;2023-02-13T13:06:59;103696.41;;;8.50;100.00
5996;BME280;3026;53.612;7.278;2023-02-13T13:09:43;103691.84;;;8.50;100.00
5996;BME280;3026;53.612;7.278;2023-02-13T13:12:23;103684.84;;;8.46;100.00
5996;BME280;3026;53.612;7.278;2023-02-13T13:15:02;103694.66;;;8.48;100.00
5996;BME280;3026;53.612;7.278;2023-02-13T13:17:40;103695.53;;;8.49;100.00
5996;BME280;3026;53.612;7.278;2023-02-13T13:23:17;103690.97;;;8.50;100.00
5996;BME280;3026;53.612;7.278;2023-02-13T13:25:55;103694.56;;;8.50;100.00
5996;BME280;3026;53.612;7.278;2023-02-13T13:28:27;103696.22;;;8.53;100.00
5996;BME280;3026;53.612;7.278;2023-02-13T13:30:57;103707.63;;;8.59;100.00
5996;BME280;3026;53.612;7.278;2023-02-13T13:33:25;103697.88;;;8.55;100.00
5996;BME280;3026;53.612;7.278;2023-02-13T13:36:00;103695.16;;;8.55;100.00
5996;BME280;3026;53.612;7.278;2023-02-13T13:38:45;103685.34;;;8.53;100.00
5996;BME280;3026;53.612;7.278;2023-02-13T13:41:25;103685.44;;;8.51;100.00
5996;BME280;3026;53.612;7.278;2023-02-13T13:46:52;103688.16;;;8.51;100.00
5996;BME280;3026;53.612;7.278;2023-02-13T13:49:34;103686.22;;;8.53;100.00
5996;BME280;3026;53.612;7.278;2023-02-13T13:52:23;103677.06;;;8.54;100.00
5996;BME280;3026;53.612;7.278;2023-02-13T13:54:50;103678.03;;;8.53;100.00
5996;BME280;3026;53.612;7.278;2023-02-13T13:57:24;103677.06;;;8.54;100.00
5996;BME280;3026;53.612;7.278;2023-02-13T14:03:20;103667.94;;;8.55;100.00
5996;BME280;3026;53.612;7.278;2023-02-13T14:06:00;103674.19;;;8.57;100.00